Boise (BOI/KBOI)

Map

Destinations

Information

Location
Boise, ID
Local Time
17:24 / 5:24 pm
GMT Time
00:24 / 12:24 am
Gates
Unassigned
No FAA reported delays
METAR KBOI 230015Z 29011KT 9SM -SN BKN024 OVC031 03/M01 A2989 RMK AO2 SNB08 P0000 T00281011
TAF KBOI 222340Z 2300/2324 32011KT P6SM VCSH OVC035 TEMPO 2302/2306 3SM -SHSN OVC025 FM231800 30020G30KT P6SM SCT025 BKN040
  • No charts available